createdAt,value
2017-08-26T00:01:56.209Z,99.90
2017-08-26T00:04:23.685Z,99.90
2017-08-26T00:06:51.161Z,99.90
2017-08-26T00:09:18.669Z,99.90
2017-08-26T00:11:46.149Z,99.90
2017-08-26T00:14:13.625Z,99.90
2017-08-26T00:16:41.445Z,99.90
2017-08-26T00:19:08.925Z,99.90
2017-08-26T00:21:36.401Z,99.90
2017-08-26T00:24:03.896Z,99.90
2017-08-26T00:26:31.377Z,99.90
2017-08-26T00:28:59.621Z,99.90
2017-08-26T00:31:27.118Z,99.90
2017-08-26T00:33:54.598Z,99.90
2017-08-26T00:36:22.077Z,99.90
2017-08-26T00:38:49.833Z,99.90
2017-08-26T00:41:17.304Z,99.90
2017-08-26T00:43:44.781Z,99.90
2017-08-26T00:46:12.285Z,99.90
2017-08-26T00:48:39.762Z,99.90
2017-08-26T00:51:07.241Z,99.90
2017-08-26T00:53:34.733Z,99.90
2017-08-26T00:56:02.973Z,99.90
2017-08-26T00:58:30.668Z,99.90
2017-08-26T01:00:58.164Z,99.90
2017-08-26T01:03:25.641Z,99.90
2017-08-26T01:05:53.121Z,99.90
2017-08-26T01:08:20.619Z,99.90
2017-08-26T01:10:48.103Z,99.90
2017-08-26T01:13:15.585Z,99.90
2017-08-26T01:15:43.170Z,99.90
2017-08-26T01:18:11.419Z,99.90
2017-08-26T01:20:38.901Z,99.90
2017-08-26T01:23:06.394Z,99.90
2017-08-26T01:25:33.874Z,99.90
2017-08-26T01:28:01.369Z,99.90
2017-08-26T01:30:28.869Z,99.90
2017-08-26T01:32:56.345Z,99.90
2017-08-26T01:35:23.841Z,99.90
2017-08-26T01:37:51.341Z,99.90
2017-08-26T01:40:18.817Z,99.90
2017-08-26T01:42:46.467Z,99.90
2017-08-26T01:45:14.361Z,99.90
2017-08-26T01:47:42.097Z,99.90
2017-08-26T01:50:09.577Z,99.90
2017-08-26T01:52:37.269Z,99.90
2017-08-26T01:55:04.745Z,99.90
2017-08-26T01:57:32.222Z,99.90
2017-08-26T01:59:59.722Z,99.90
2017-08-26T02:02:27.193Z,99.90
2017-08-26T02:04:54.802Z,99.90
2017-08-26T02:07:22.321Z,99.90
2017-08-26T02:09:49.801Z,99.90
2017-08-26T02:12:17.273Z,99.90
2017-08-26T02:14:45.537Z,99.90
2017-08-26T02:17:13.033Z,99.90
2017-08-26T02:19:40.509Z,99.90
2017-08-26T02:22:08.006Z,99.90
2017-08-26T02:24:35.481Z,99.90
2017-08-26T02:27:02.953Z,99.90
2017-08-26T02:29:30.666Z,99.90
2017-08-26T02:31:58.150Z,99.90
2017-08-26T02:34:25.629Z,99.90
2017-08-26T02:36:53.129Z,99.90
2017-08-26T02:39:20.605Z,99.90
2017-08-26T02:41:48.183Z,99.90
2017-08-26T02:44:16.449Z,99.90
2017-08-26T02:46:43.921Z,99.90
2017-08-26T02:49:11.394Z,99.90
2017-08-26T02:51:38.903Z,99.90
2017-08-26T02:54:06.381Z,99.90
2017-08-26T02:56:33.857Z,99.90
2017-08-26T02:59:01.359Z,99.90
2017-08-26T03:01:28.836Z,99.90
2017-08-26T03:03:57.344Z,99.90
2017-08-26T03:06:24.842Z,99.90
2017-08-26T03:08:52.430Z,99.90
2017-08-26T03:11:19.951Z,99.90
2017-08-26T03:13:47.449Z,99.90
2017-08-26T03:16:14.928Z,99.90
2017-08-26T03:18:42.404Z,99.90
2017-08-26T03:21:09.909Z,99.90
2017-08-26T03:23:37.384Z,99.90
2017-08-26T03:26:04.858Z,99.90
2017-08-26T03:28:32.578Z,99.90
2017-08-26T03:31:00.854Z,99.90
2017-08-26T03:33:28.338Z,99.90
2017-08-26T03:35:55.841Z,99.90
2017-08-26T03:38:23.339Z,99.90
2017-08-26T03:40:51.794Z,99.90
2017-08-26T03:43:19.293Z,99.90
2017-08-26T03:45:46.769Z,99.90
2017-08-26T03:48:14.538Z,99.90
2017-08-26T03:50:42.044Z,99.90
2017-08-26T03:53:09.522Z,99.90
2017-08-26T03:55:37.001Z,99.90
2017-08-26T03:58:04.500Z,99.90
2017-08-26T04:00:31.976Z,99.90
2017-08-26T04:02:59.456Z,99.90
2017-08-26T04:05:27.128Z,99.90
2017-08-26T04:07:54.608Z,99.90
2017-08-26T04:10:22.086Z,99.90
2017-08-26T04:12:49.589Z,99.90
2017-08-26T04:15:17.068Z,99.90
2017-08-26T04:17:44.549Z,99.90
2017-08-26T04:20:12.045Z,99.90
2017-08-26T04:22:39.517Z,99.90
2017-08-26T04:25:07.005Z,99.90
2017-08-26T04:27:34.913Z,99.90
2017-08-26T04:30:02.397Z,99.90
2017-08-26T04:32:29.974Z,99.90
2017-08-26T04:34:57.473Z,99.90
2017-08-26T04:37:24.953Z,99.90
2017-08-26T04:39:53.193Z,99.90
2017-08-26T04:42:20.688Z,99.90
2017-08-26T04:44:48.185Z,99.90
2017-08-26T04:47:15.660Z,99.90
2017-08-26T04:49:43.157Z,99.90
2017-08-26T04:52:11.398Z,99.90
2017-08-26T04:54:38.873Z,99.90
2017-08-26T04:57:06.378Z,99.90
2017-08-26T04:59:33.861Z,99.90
2017-08-26T05:02:01.337Z,99.90
2017-08-26T05:04:28.846Z,99.90
2017-08-26T05:06:56.381Z,99.90
2017-08-26T05:09:23.929Z,99.90
2017-08-26T05:11:51.429Z,99.90
2017-08-26T05:14:18.910Z,99.90
2017-08-26T05:16:46.406Z,99.90
2017-08-26T05:19:13.915Z,99.90
2017-08-26T05:21:41.393Z,99.90
2017-08-26T05:24:08.926Z,99.90
2017-08-26T05:26:36.421Z,99.90
2017-08-26T05:29:04.146Z,99.90
2017-08-26T05:31:31.729Z,99.90
2017-08-26T05:33:59.353Z,99.90
2017-08-26T05:36:26.861Z,99.90
2017-08-26T05:38:54.337Z,99.90
2017-08-26T05:41:22.601Z,99.90
2017-08-26T05:43:50.080Z,99.90
2017-08-26T05:46:17.581Z,99.90
2017-08-26T05:48:45.333Z,99.90
2017-08-26T05:51:12.830Z,99.90
2017-08-26T05:53:40.308Z,99.90
2017-08-26T05:56:07.785Z,99.90
2017-08-26T05:58:35.285Z,99.90
2017-08-26T06:01:02.757Z,99.90
2017-08-26T06:03:30.249Z,99.90
2017-08-26T06:05:57.722Z,99.90
2017-08-26T06:08:25.213Z,99.90
2017-08-26T06:10:52.693Z,98.80
2017-08-26T06:13:20.187Z,98.80
2017-08-26T06:15:47.673Z,98.70
2017-08-26T06:18:15.930Z,97.50
2017-08-26T06:20:43.701Z,97.50
2017-08-26T06:23:11.194Z,98.00
2017-08-26T06:25:38.669Z,96.90
2017-08-26T06:28:06.152Z,97.20
2017-08-26T06:30:33.641Z,97.40
2017-08-26T06:33:01.117Z,97.80
2017-08-26T06:35:28.613Z,96.80
2017-08-26T06:37:57.888Z,96.10
2017-08-26T06:40:27.061Z,93.60
2017-08-26T06:42:54.701Z,93.60
2017-08-26T06:45:22.173Z,93.50
2017-08-26T06:47:49.665Z,93.80
2017-08-26T06:50:17.138Z,93.70
2017-08-26T06:52:44.609Z,93.70
2017-08-26T06:55:12.096Z,94.10
2017-08-26T06:57:40.333Z,93.30
2017-08-26T07:00:09.256Z,92.70
2017-08-26T07:02:36.746Z,92.70
2017-08-26T07:05:04.241Z,92.20
2017-08-26T07:07:32.029Z,91.60
2017-08-26T07:09:59.501Z,90.90
2017-08-26T07:12:26.993Z,90.50
2017-08-26T07:14:54.502Z,90.40
2017-08-26T07:17:21.993Z,90.10
2017-08-26T07:19:49.461Z,90.00
2017-08-26T07:22:16.933Z,83.00
2017-08-26T07:24:45.189Z,83.20
2017-08-26T07:27:12.681Z,83.20
2017-08-26T07:29:40.154Z,83.00
2017-08-26T07:32:07.621Z,84.10
2017-08-26T07:34:35.119Z,78.80
2017-08-26T07:37:02.593Z,77.40
2017-08-26T07:39:30.086Z,77.80
2017-08-26T07:41:57.557Z,75.80
2017-08-26T07:44:25.025Z,75.10
2017-08-26T07:46:52.513Z,75.10
2017-08-26T07:49:19.989Z,75.80
2017-08-26T07:51:47.481Z,75.10
2017-08-26T07:54:14.952Z,74.90
2017-08-26T07:56:42.545Z,72.90
2017-08-26T07:59:10.781Z,72.50
2017-08-26T08:01:38.268Z,72.30
2017-08-26T08:04:05.737Z,73.40
2017-08-26T08:06:33.230Z,68.50
2017-08-26T08:09:00.701Z,69.00
2017-08-26T08:11:28.169Z,68.30
2017-08-26T08:13:55.661Z,66.70
2017-08-26T08:16:23.133Z,65.30
2017-08-26T08:18:50.621Z,64.00
2017-08-26T08:21:18.094Z,62.60
2017-08-26T08:23:45.581Z,62.80
2017-08-26T08:26:13.053Z,63.20
2017-08-26T08:28:41.310Z,57.70
2017-08-26T08:31:08.882Z,57.70
2017-08-26T08:33:37.141Z,54.80
2017-08-26T08:36:04.637Z,54.80
2017-08-26T08:38:32.101Z,55.20
2017-08-26T08:40:59.593Z,54.30
2017-08-26T08:43:27.065Z,56.20
2017-08-26T08:45:54.560Z,56.50
2017-08-26T08:48:22.801Z,54.90
2017-08-26T08:50:50.275Z,55.00
2017-08-26T08:53:18.534Z,53.80
2017-08-26T08:55:46.020Z,53.20
2017-08-26T08:58:13.525Z,51.30
2017-08-26T09:00:41.274Z,52.50
2017-08-26T09:03:08.746Z,54.60
2017-08-26T09:05:36.246Z,54.90
2017-08-26T09:08:04.485Z,51.20
2017-08-26T09:10:31.957Z,51.10
2017-08-26T09:12:59.448Z,53.20
2017-08-26T09:15:26.918Z,54.70
2017-08-26T09:17:54.406Z,54.20
2017-08-26T09:20:21.877Z,51.70
2017-08-26T09:22:49.365Z,53.00
2017-08-26T09:25:16.842Z,52.70
2017-08-26T09:27:44.315Z,49.50
2017-08-26T09:30:11.805Z,50.00
2017-08-26T09:32:39.278Z,50.30
2017-08-26T09:35:06.777Z,50.70
2017-08-26T09:37:34.249Z,48.40
2017-08-26T09:40:01.718Z,48.10
2017-08-26T09:42:29.209Z,49.80
2017-08-26T09:44:56.680Z,48.30
2017-08-26T09:47:24.937Z,45.00
2017-08-26T09:49:53.173Z,48.00
2017-08-26T09:52:20.665Z,47.90
2017-08-26T09:54:48.185Z,46.90
2017-08-26T09:57:15.657Z,45.60
2017-08-26T09:59:43.149Z,45.50
2017-08-26T10:02:10.622Z,47.70
2017-08-26T10:04:38.881Z,46.70
2017-08-26T10:07:06.357Z,46.70
2017-08-26T10:09:34.613Z,49.00
2017-08-26T10:12:02.083Z,48.50
2017-08-26T10:14:29.598Z,48.70
2017-08-26T10:16:57.074Z,46.90
2017-08-26T10:19:24.545Z,48.60
2017-08-26T10:21:52.037Z,46.60
2017-08-26T10:24:19.508Z,47.20
2017-08-26T10:26:47.002Z,48.50
2017-08-26T10:29:14.473Z,47.10
2017-08-26T10:31:41.945Z,45.90
2017-08-26T10:34:09.433Z,47.70
2017-08-26T10:36:36.906Z,47.50
2017-08-26T10:39:04.397Z,42.30
2017-08-26T10:41:31.869Z,42.90
2017-08-26T10:44:00.129Z,44.60
2017-08-26T10:46:27.618Z,44.60
2017-08-26T10:48:55.094Z,45.40
2017-08-26T10:51:22.861Z,43.00
2017-08-26T10:53:50.329Z,43.40
2017-08-26T10:56:18.701Z,42.90
2017-08-26T10:58:46.173Z,43.10
2017-08-26T11:01:13.666Z,43.70
2017-08-26T11:03:41.136Z,42.90
2017-08-26T11:06:08.610Z,43.30
2017-08-26T11:08:36.101Z,43.30
2017-08-26T11:11:03.785Z,42.60
2017-08-26T11:13:31.282Z,41.70
2017-08-26T11:15:58.761Z,43.60
2017-08-26T11:18:26.236Z,44.40
2017-08-26T11:20:53.724Z,39.00
2017-08-26T11:23:21.985Z,39.80
2017-08-26T11:25:49.705Z,39.80
2017-08-26T11:28:17.186Z,41.60
2017-08-26T11:30:44.679Z,41.00
2017-08-26T11:33:12.149Z,43.90
2017-08-26T11:35:39.617Z,41.20
2017-08-26T11:38:07.153Z,39.70
2017-08-26T11:40:34.646Z,41.20
2017-08-26T11:43:02.133Z,42.00
2017-08-26T11:45:29.624Z,41.70
2017-08-26T11:47:57.120Z,39.40
2017-08-26T11:50:24.589Z,38.10
2017-08-26T11:52:52.075Z,36.80
2017-08-26T11:55:19.586Z,38.80
2017-08-26T11:57:47.061Z,36.80
2017-08-26T12:00:14.558Z,35.40
2017-08-26T12:02:42.270Z,38.90
2017-08-26T12:05:09.761Z,38.40
2017-08-26T12:07:37.233Z,39.70
2017-08-26T12:10:05.505Z,39.50
2017-08-26T12:12:32.978Z,40.10
2017-08-26T12:15:01.237Z,37.90
2017-08-26T12:17:28.952Z,37.80
2017-08-26T12:19:56.453Z,40.30
2017-08-26T12:22:23.925Z,37.00
2017-08-26T12:24:52.181Z,37.60
2017-08-26T12:27:19.654Z,37.70
2017-08-26T12:29:47.913Z,35.30
2017-08-26T12:32:15.741Z,35.10
2017-08-26T12:34:43.242Z,34.00
2017-08-26T12:37:10.709Z,34.50
2017-08-26T12:39:38.181Z,36.00
2017-08-26T12:42:05.685Z,34.30
2017-08-26T12:44:33.157Z,33.20
2017-08-26T12:47:00.629Z,36.70
2017-08-26T12:49:28.127Z,35.00
2017-08-26T12:51:55.611Z,33.60
2017-08-26T12:54:23.105Z,32.80
2017-08-26T12:56:50.589Z,34.30
2017-08-26T12:59:18.081Z,35.80
2017-08-26T13:01:45.549Z,34.80
2017-08-26T13:04:13.289Z,35.30
2017-08-26T13:06:40.785Z,34.10
2017-08-26T13:09:08.260Z,35.10
2017-08-26T13:11:36.521Z,35.10
2017-08-26T13:14:03.997Z,35.00
2017-08-26T13:16:32.344Z,35.20
2017-08-26T13:19:00.077Z,35.00
2017-08-26T13:21:27.554Z,35.00
2017-08-26T13:23:55.046Z,37.00
2017-08-26T13:26:23.285Z,35.20
2017-08-26T13:28:50.777Z,35.20
2017-08-26T13:31:19.016Z,40.00
2017-08-26T13:33:46.485Z,39.90
2017-08-26T13:36:13.980Z,39.90
2017-08-26T13:38:41.449Z,39.30
2017-08-26T13:41:08.942Z,41.50
2017-08-26T13:43:36.418Z,42.80
2017-08-26T13:46:03.889Z,42.90
2017-08-26T13:48:31.397Z,43.30
2017-08-26T13:50:59.162Z,44.70
2017-08-26T13:53:26.909Z,43.30
2017-08-26T13:55:54.386Z,44.00
2017-08-26T13:58:21.881Z,44.60
2017-08-26T14:00:49.352Z,45.70
2017-08-26T14:03:16.826Z,45.60
2017-08-26T14:05:44.332Z,46.30
2017-08-26T14:08:11.811Z,47.30
2017-08-26T14:10:39.313Z,48.90
2017-08-26T14:13:06.833Z,47.90
2017-08-26T14:15:34.541Z,48.60
2017-08-26T14:18:02.034Z,49.00
2017-08-26T14:20:29.535Z,49.30
2017-08-26T14:22:57.013Z,49.70
2017-08-26T14:25:24.491Z,50.60
2017-08-26T14:27:51.991Z,50.70
2017-08-26T14:30:20.253Z,49.80
2017-08-26T14:32:47.729Z,49.80
2017-08-26T14:35:15.222Z,50.80
2017-08-26T14:37:43.483Z,50.50
2017-08-26T14:40:11.000Z,51.30
2017-08-26T14:42:38.520Z,51.00
2017-08-26T14:45:05.997Z,52.00
2017-08-26T14:47:33.553Z,51.80
2017-08-26T14:50:01.025Z,52.30
2017-08-26T14:52:28.532Z,53.80
2017-08-26T14:54:56.001Z,52.30
2017-08-26T14:57:23.474Z,53.10
2017-08-26T14:59:53.977Z,52.00
2017-08-26T15:02:26.297Z,52.70
2017-08-26T15:04:53.810Z,53.40
2017-08-26T15:07:21.288Z,53.00
2017-08-26T15:09:48.785Z,54.10
2017-08-26T15:12:17.027Z,53.80
2017-08-26T15:14:44.517Z,53.70
2017-08-26T15:17:12.763Z,55.10
2017-08-26T15:19:40.256Z,55.10
2017-08-26T15:22:08.501Z,54.70
2017-08-26T15:24:36.001Z,54.70
2017-08-26T15:27:03.513Z,56.70
2017-08-26T15:29:31.041Z,55.90
2017-08-26T15:31:58.532Z,56.70
2017-08-26T15:34:26.004Z,57.50
2017-08-26T15:36:53.495Z,57.60
2017-08-26T15:39:20.973Z,57.70
2017-08-26T15:41:48.457Z,58.60
2017-08-26T15:44:15.945Z,57.90
2017-08-26T15:46:43.413Z,57.50
2017-08-26T15:49:10.907Z,58.80
2017-08-26T15:51:38.446Z,58.50
2017-08-26T15:54:06.154Z,58.20
2017-08-26T15:56:33.630Z,58.60
2017-08-26T15:59:01.121Z,60.00
2017-08-26T16:01:28.589Z,59.50
2017-08-26T16:03:56.081Z,60.20
2017-08-26T16:06:23.553Z,60.70
2017-08-26T16:08:51.066Z,61.00
2017-08-26T16:11:18.545Z,61.90
2017-08-26T16:13:46.026Z,62.80
2017-08-26T16:16:13.521Z,62.40
2017-08-26T16:18:41.004Z,62.80
2017-08-26T16:21:08.708Z,62.40
2017-08-26T16:23:36.977Z,63.60
2017-08-26T16:26:04.474Z,63.60
2017-08-26T16:28:31.942Z,63.60
2017-08-26T16:30:59.702Z,64.30
2017-08-26T16:33:27.174Z,64.00
2017-08-26T16:35:54.661Z,64.90
2017-08-26T16:38:22.141Z,64.30
2017-08-26T16:40:50.465Z,65.20
2017-08-26T16:43:17.933Z,65.20
2017-08-26T16:45:45.408Z,65.30
2017-08-26T16:48:12.900Z,65.90
2017-08-26T16:50:40.381Z,66.70
2017-08-26T16:53:07.869Z,66.20
2017-08-26T16:55:35.345Z,66.30
2017-08-26T16:58:02.843Z,67.20
2017-08-26T17:00:30.321Z,66.80
2017-08-26T17:02:57.809Z,66.80
2017-08-26T17:05:25.281Z,66.60
2017-08-26T17:07:53.521Z,67.80
2017-08-26T17:10:21.017Z,67.90
2017-08-26T17:12:48.565Z,67.90
2017-08-26T17:15:16.060Z,68.10
2017-08-26T17:17:43.532Z,69.10
2017-08-26T17:20:14.962Z,69.30
2017-08-26T17:22:42.613Z,69.70
2017-08-26T17:25:10.106Z,69.60
2017-08-26T17:27:37.573Z,70.00
2017-08-26T17:30:05.094Z,69.90
2017-08-26T17:32:32.715Z,70.70
2017-08-26T17:35:00.235Z,70.70
2017-08-26T17:37:27.713Z,70.90
2017-08-26T17:39:55.205Z,70.90
2017-08-26T17:42:23.446Z,71.70
2017-08-26T17:44:50.917Z,71.70
2017-08-26T17:47:18.421Z,72.00
2017-08-26T17:49:45.897Z,72.60
2017-08-26T17:52:13.393Z,72.30
2017-08-26T17:54:40.886Z,72.90
2017-08-26T17:57:08.352Z,73.90
2017-08-26T17:59:35.849Z,74.30
2017-08-26T18:02:03.416Z,74.70
2017-08-26T18:04:30.913Z,74.60
2017-08-26T18:06:58.438Z,75.00
2017-08-26T18:09:25.909Z,74.90
2017-08-26T18:11:54.177Z,75.40
2017-08-26T18:14:21.658Z,75.40
2017-08-26T18:16:49.153Z,76.70
2017-08-26T18:19:16.624Z,77.50
2017-08-26T18:21:44.098Z,78.30
2017-08-26T18:24:11.595Z,78.50
2017-08-26T18:26:39.081Z,79.50
2017-08-26T18:29:06.573Z,81.00
2017-08-26T18:31:34.056Z,81.50
2017-08-26T18:34:01.562Z,82.80
2017-08-26T18:36:29.082Z,83.10
2017-08-26T18:38:57.389Z,84.30
2017-08-26T18:41:24.889Z,84.30
2017-08-26T18:43:53.133Z,86.70
2017-08-26T18:46:20.605Z,86.70
2017-08-26T18:48:48.154Z,87.80
2017-08-26T18:51:15.640Z,88.80
2017-08-26T18:53:43.901Z,90.60
2017-08-26T18:56:11.387Z,90.60
2017-08-26T18:58:39.669Z,91.10
2017-08-26T19:01:07.166Z,91.50
2017-08-26T19:03:34.653Z,91.70
2017-08-26T19:06:02.195Z,91.90
2017-08-26T19:08:29.729Z,92.00
2017-08-26T19:10:57.210Z,92.10
2017-08-26T19:13:24.714Z,92.60
2017-08-26T19:15:52.194Z,92.80
2017-08-26T19:18:19.701Z,93.10
2017-08-26T19:20:47.177Z,93.10
2017-08-26T19:23:14.673Z,93.40
2017-08-26T19:25:42.951Z,93.80
2017-08-26T19:28:10.433Z,94.10
2017-08-26T19:30:37.929Z,94.20
2017-08-26T19:33:05.413Z,94.60
2017-08-26T19:35:32.917Z,94.40
2017-08-26T19:38:00.434Z,94.60
2017-08-26T19:40:27.921Z,94.80
2017-08-26T19:42:55.466Z,95.00
2017-08-26T19:45:22.953Z,94.90
2017-08-26T19:47:51.193Z,95.60
2017-08-26T19:50:18.693Z,95.60
2017-08-26T19:52:46.493Z,95.70
2017-08-26T19:55:13.997Z,96.00
2017-08-26T19:57:41.473Z,95.70
2017-08-26T20:00:09.717Z,95.60
2017-08-26T20:02:37.213Z,95.60
2017-08-26T20:05:04.696Z,95.50
2017-08-26T20:07:32.198Z,95.70
2017-08-26T20:09:59.685Z,96.00
2017-08-26T20:12:27.173Z,95.80
2017-08-26T20:14:54.670Z,96.00
2017-08-26T20:17:22.162Z,96.10
2017-08-26T20:19:49.669Z,96.40
2017-08-26T20:22:17.156Z,96.80
2017-08-26T20:24:44.957Z,96.60
2017-08-26T20:27:12.453Z,96.60
2017-08-26T20:29:39.934Z,96.60
2017-08-26T20:32:07.428Z,96.70
2017-08-26T20:34:34.912Z,96.80
2017-08-26T20:37:02.389Z,97.00
2017-08-26T20:39:29.897Z,97.20
2017-08-26T20:41:57.376Z,97.70
2017-08-26T20:44:24.878Z,98.30
2017-08-26T20:46:53.117Z,98.40
2017-08-26T20:49:20.605Z,98.40
2017-08-26T20:51:48.113Z,98.80
2017-08-26T20:54:15.594Z,99.10
2017-08-26T20:56:43.178Z,99.20
2017-08-26T20:59:10.661Z,99.20
2017-08-26T21:01:38.444Z,99.30
2017-08-26T21:04:05.943Z,99.30
2017-08-26T21:06:33.442Z,99.00
2017-08-26T21:09:00.946Z,99.20
2017-08-26T21:11:28.453Z,99.30
2017-08-26T21:13:55.933Z,99.50
2017-08-26T21:16:23.429Z,99.30
2017-08-26T21:18:50.905Z,99.20
2017-08-26T21:21:19.210Z,99.90
2017-08-26T21:23:46.685Z,99.90
2017-08-26T21:26:14.166Z,99.80
2017-08-26T21:28:41.666Z,99.80
2017-08-26T21:31:09.910Z,99.90
2017-08-26T21:33:38.193Z,99.90
2017-08-26T21:36:05.673Z,99.90
2017-08-26T21:38:33.157Z,99.80
2017-08-26T21:41:00.657Z,99.90
2017-08-26T21:43:28.134Z,99.90
2017-08-26T21:45:55.638Z,99.90
2017-08-26T21:48:23.113Z,99.90
2017-08-26T21:50:50.602Z,99.90
2017-08-26T21:53:18.101Z,99.90
2017-08-26T21:55:46.454Z,99.90
2017-08-26T21:58:13.955Z,99.90
2017-08-26T22:00:41.449Z,99.90
2017-08-26T22:03:09.697Z,99.90
2017-08-26T22:05:37.432Z,99.90
2017-08-26T22:08:04.906Z,99.90
2017-08-26T22:10:32.401Z,99.90
2017-08-26T22:12:59.881Z,99.90
2017-08-26T22:15:27.361Z,99.90
2017-08-26T22:17:54.865Z,99.90
2017-08-26T22:20:22.349Z,99.90
2017-08-26T22:22:49.845Z,99.90
2017-08-26T22:25:17.325Z,99.90
2017-08-26T22:27:44.805Z,99.90
2017-08-26T22:30:13.073Z,99.90
2017-08-26T22:32:40.553Z,99.90
2017-08-26T22:35:08.082Z,99.90
2017-08-26T22:37:35.557Z,99.90
2017-08-26T22:40:03.039Z,99.90
2017-08-26T22:42:30.535Z,99.90
2017-08-26T22:44:58.489Z,99.90
2017-08-26T22:47:25.997Z,99.90
2017-08-26T22:49:54.242Z,99.90
2017-08-26T22:52:21.973Z,99.90
2017-08-26T22:54:49.514Z,99.90
2017-08-26T22:57:16.997Z,99.90
2017-08-26T22:59:44.497Z,99.90
2017-08-26T23:02:12.742Z,99.90
2017-08-26T23:04:40.217Z,99.90
2017-08-26T23:07:07.941Z,99.90
2017-08-26T23:09:35.434Z,99.90
2017-08-26T23:12:03.707Z,99.90
2017-08-26T23:14:31.438Z,99.90
2017-08-26T23:16:58.914Z,99.90
2017-08-26T23:19:26.409Z,99.90
2017-08-26T23:21:54.658Z,99.90
2017-08-26T23:24:22.161Z,99.90
2017-08-26T23:26:49.641Z,99.90
2017-08-26T23:29:17.118Z,99.90
2017-08-26T23:31:44.617Z,99.90
2017-08-26T23:34:12.862Z,99.90
2017-08-26T23:36:40.599Z,99.90
2017-08-26T23:39:08.077Z,99.90
2017-08-26T23:41:35.554Z,99.90
2017-08-26T23:44:03.045Z,99.90
2017-08-26T23:46:30.527Z,99.90
2017-08-26T23:48:58.033Z,99.90
2017-08-26T23:51:26.277Z,99.90
2017-08-26T23:53:53.753Z,99.90
2017-08-26T23:56:21.250Z,99.90
2017-08-26T23:58:48.733Z,99.90
